Bellocq, Argentina
Current Conditions -  °F | °C
As of 10:00 AM on Sunday 21 Dec 2014 (Local Time) from SAEZ Reporting Station
Scattered Clouds Scattered Clouds  
Wind Chill: 61°   Ceiling: Unl
Heat Index: 61°   Visibility: 6mi
Dew Point: 50°   Wind: 9mph
Humidity: 68%   Direction: 170°S
Pressure: 29.8"   Gusts: NA
Location:  35.8°S, 61.35°W
Report Text: SAEZ 211300Z 17008KT 140V200 9999 SCT045 16/10 Q1009
Loading
Personal Weather Stations






























Interactive Weather Map New forecast layout! Learn more

10-Day Weather Forecast

Advertisements
Track Severe Weather on mobile